createdAt,value
2022-08-16T00:02:12.881Z,38.40
2022-08-16T00:04:17.585Z,38.50
2022-08-16T00:06:21.714Z,38.60
2022-08-16T00:08:36.913Z,38.80
2022-08-16T00:10:41.845Z,38.70
2022-08-16T00:12:44.233Z,38.60
2022-08-16T00:14:48.301Z,38.80
2022-08-16T00:17:05.778Z,39.00
2022-08-16T00:19:22.551Z,39.00
2022-08-16T00:21:24.489Z,39.10
2022-08-16T00:23:34.911Z,39.40
2022-08-16T00:26:35.154Z,38.80
2022-08-16T00:28:15.420Z,38.80
2022-08-16T00:30:29.020Z,38.70
2022-08-16T00:32:32.756Z,38.90
2022-08-16T00:34:43.744Z,38.80
2022-08-16T00:36:55.934Z,38.90
2022-08-16T00:39:00.396Z,38.80
2022-08-16T00:41:06.049Z,38.80
2022-08-16T00:43:19.260Z,38.70
2022-08-16T00:45:30.735Z,38.80
2022-08-16T00:47:49.254Z,39.10
2022-08-16T00:49:56.241Z,38.70
2022-08-16T00:51:59.557Z,38.50
2022-08-16T00:54:02.055Z,38.60
2022-08-16T00:56:09.457Z,38.60
2022-08-16T00:58:34.879Z,38.90
2022-08-16T01:00:41.143Z,38.80
2022-08-16T01:02:43.002Z,38.60
2022-08-16T01:05:10.964Z,38.50
2022-08-16T01:07:10.292Z,38.50
2022-08-16T01:09:20.254Z,38.40
2022-08-16T01:11:26.211Z,38.60
2022-08-16T01:13:32.991Z,38.50
2022-08-16T01:15:43.115Z,38.60
2022-08-16T01:17:47.491Z,38.40
2022-08-16T01:20:02.411Z,38.20
2022-08-16T01:23:08.741Z,38.40
2022-08-16T01:25:16.343Z,38.30
2022-08-16T01:27:31.423Z,38.00
2022-08-16T01:29:57.853Z,38.10
2022-08-16T01:32:01.125Z,38.00
2022-08-16T01:34:09.459Z,37.70
2022-08-16T01:36:27.108Z,37.90
2022-08-16T01:38:33.261Z,37.90
2022-08-16T01:40:35.441Z,37.90
2022-08-16T01:42:37.550Z,38.50
2022-08-16T01:44:44.167Z,38.10
2022-08-16T01:46:48.307Z,38.30
2022-08-16T01:49:17.117Z,38.50
2022-08-16T01:51:21.852Z,38.90
2022-08-16T01:53:26.669Z,38.60
2022-08-16T01:55:53.677Z,38.60
2022-08-16T01:57:57.234Z,38.30
2022-08-16T02:00:03.983Z,38.10
2022-08-16T02:02:27.383Z,38.20
2022-08-16T02:04:48.574Z,38.30
2022-08-16T02:06:55.577Z,38.50
2022-08-16T02:08:58.179Z,38.60
2022-08-16T02:11:11.217Z,38.60
2022-08-16T02:13:15.185Z,39.30
2022-08-16T02:15:24.798Z,39.10
2022-08-16T02:17:28.635Z,39.40
2022-08-16T02:19:58.776Z,39.40
2022-08-16T02:22:09.268Z,39.70
2022-08-16T02:24:32.156Z,39.70
2022-08-16T02:26:37.031Z,39.30
2022-08-16T02:28:40.085Z,39.30
2022-08-16T02:30:51.853Z,39.50
2022-08-16T02:32:54.576Z,39.70
2022-08-16T02:34:57.949Z,39.60
2022-08-16T02:37:00.750Z,39.80
2022-08-16T02:39:06.900Z,40.00
2022-08-16T02:41:12.078Z,40.20
2022-08-16T02:43:14.617Z,40.20
2022-08-16T02:45:19.361Z,40.10
2022-08-16T02:47:24.988Z,40.30
2022-08-16T02:49:58.380Z,40.20
2022-08-16T02:51:51.718Z,40.20
2022-08-16T02:53:54.337Z,40.40
2022-08-16T02:56:00.383Z,40.40
2022-08-16T02:58:04.517Z,40.60
2022-08-16T03:00:33.678Z,40.80
2022-08-16T03:02:33.232Z,41.00
2022-08-16T03:04:50.636Z,41.10
2022-08-16T03:06:57.380Z,41.20
2022-08-16T03:09:16.292Z,41.30
2022-08-16T03:11:22.047Z,41.50
2022-08-16T03:13:27.630Z,41.50
2022-08-16T03:15:30.001Z,41.70
2022-08-16T03:17:35.133Z,41.80
2022-08-16T03:19:59.512Z,42.00
2022-08-16T03:22:05.103Z,42.10
2022-08-16T03:24:28.900Z,42.20
2022-08-16T03:26:31.934Z,42.40
2022-08-16T03:28:34.429Z,42.40
2022-08-16T03:30:36.882Z,42.50
2022-08-16T03:32:41.471Z,42.50
2022-08-16T03:34:46.406Z,42.60
2022-08-16T03:36:52.439Z,42.50
2022-08-16T03:38:57.995Z,42.60
2022-08-16T03:41:17.144Z,42.80
2022-08-16T03:43:51.255Z,42.60
2022-08-16T03:45:57.448Z,42.30
2022-08-16T03:48:04.983Z,42.40
2022-08-16T03:50:25.759Z,42.50
2022-08-16T03:52:31.976Z,42.50
2022-08-16T03:54:35.894Z,42.40
2022-08-16T03:56:38.979Z,42.50
2022-08-16T03:59:01.409Z,42.50
2022-08-16T04:01:12.503Z,42.50
2022-08-16T04:03:18.604Z,42.60
2022-08-16T04:05:25.386Z,42.60
2022-08-16T04:07:28.346Z,42.60
2022-08-16T04:09:38.188Z,42.20
2022-08-16T04:11:46.725Z,41.80
2022-08-16T04:13:58.928Z,41.40
2022-08-16T04:16:26.397Z,41.10
2022-08-16T04:18:31.458Z,40.90
2022-08-16T04:20:37.137Z,41.00
2022-08-16T04:22:44.750Z,41.10
2022-08-16T04:24:55.061Z,41.00
2022-08-16T04:27:00.706Z,41.20
2022-08-16T04:29:15.207Z,41.20
2022-08-16T04:31:20.183Z,41.20
2022-08-16T04:33:27.443Z,41.50
2022-08-16T04:35:38.671Z,41.70
2022-08-16T04:37:42.604Z,41.80
2022-08-16T04:39:55.529Z,41.90
2022-08-16T04:42:11.359Z,41.90
2022-08-16T04:44:32.466Z,42.10
2022-08-16T04:47:00.492Z,42.00
2022-08-16T04:48:59.540Z,42.10
2022-08-16T04:51:07.809Z,41.90
2022-08-16T04:53:19.209Z,42.80
2022-08-16T04:55:31.907Z,42.20
2022-08-16T04:57:43.086Z,42.60
2022-08-16T04:59:45.410Z,42.60
2022-08-16T05:01:58.004Z,42.90
2022-08-16T05:04:03.468Z,43.20
2022-08-16T05:06:11.166Z,43.20
2022-08-16T05:08:27.949Z,43.30
2022-08-16T05:10:37.190Z,43.50
2022-08-16T05:12:40.902Z,43.50
2022-08-16T05:15:01.731Z,43.70
2022-08-16T05:17:06.952Z,43.90
2022-08-16T05:19:11.635Z,44.00
2022-08-16T05:21:25.120Z,44.00
2022-08-16T05:23:31.694Z,44.20
2022-08-16T05:25:41.052Z,44.40
2022-08-16T05:27:51.518Z,44.30
2022-08-16T05:30:00.907Z,44.40
2022-08-16T05:32:31.975Z,44.70
2022-08-16T05:34:30.761Z,44.70
2022-08-16T05:36:33.902Z,44.90
2022-08-16T05:38:43.166Z,45.00
2022-08-16T05:40:59.613Z,45.20
2022-08-16T05:43:06.268Z,45.30
2022-08-16T05:45:14.456Z,45.40
2022-08-16T05:47:23.977Z,45.60
2022-08-16T05:49:38.273Z,46.10
2022-08-16T05:51:43.393Z,46.60
2022-08-16T05:53:51.767Z,46.50
2022-08-16T05:55:53.503Z,46.80
2022-08-16T05:57:55.641Z,46.80
2022-08-16T05:59:59.982Z,46.80
2022-08-16T06:02:14.597Z,46.70
2022-08-16T06:04:35.404Z,46.50
2022-08-16T06:06:43.467Z,46.50
2022-08-16T06:09:00.753Z,46.30
2022-08-16T06:11:10.239Z,46.40
2022-08-16T06:13:17.058Z,46.30
2022-08-16T06:15:20.874Z,46.30
2022-08-16T06:17:23.258Z,46.30
2022-08-16T06:19:26.613Z,46.40
2022-08-16T06:21:43.818Z,46.40
2022-08-16T06:23:45.608Z,46.60
2022-08-16T06:25:53.006Z,46.70
2022-08-16T06:27:58.999Z,46.90
2022-08-16T06:30:08.307Z,47.20
2022-08-16T06:32:11.637Z,47.50
2022-08-16T06:34:55.778Z,47.80
2022-08-16T06:36:59.188Z,48.50
2022-08-16T06:39:06.010Z,47.80
2022-08-16T06:41:28.676Z,48.50
2022-08-16T06:43:46.371Z,48.80
2022-08-16T06:46:03.834Z,48.90
2022-08-16T06:48:07.203Z,48.90
2022-08-16T06:50:09.742Z,48.40
2022-08-16T06:53:00.060Z,48.20
2022-08-16T06:54:49.968Z,48.40
2022-08-16T06:56:54.230Z,48.30
2022-08-16T06:58:57.797Z,47.60
2022-08-16T07:01:10.032Z,47.10
2022-08-16T07:03:27.739Z,46.80
2022-08-16T07:05:41.458Z,46.80
2022-08-16T07:07:52.305Z,46.70
2022-08-16T07:09:57.691Z,46.90
2022-08-16T07:12:05.460Z,46.90
2022-08-16T07:14:24.982Z,46.80
2022-08-16T07:16:30.405Z,46.80
2022-08-16T07:18:33.887Z,46.60
2022-08-16T07:20:47.968Z,46.40
2022-08-16T07:22:52.750Z,46.70
2022-08-16T07:25:12.095Z,46.50
2022-08-16T07:27:14.334Z,45.90
2022-08-16T07:29:16.304Z,45.70
2022-08-16T07:31:19.656Z,45.20
2022-08-16T07:33:52.867Z,44.80
2022-08-16T07:35:49.558Z,44.30
2022-08-16T07:37:53.166Z,44.10
2022-08-16T07:40:15.448Z,43.80
2022-08-16T07:42:25.990Z,43.60
2022-08-16T07:44:49.023Z,43.40
2022-08-16T07:46:55.576Z,42.60
2022-08-16T07:49:02.528Z,42.20
2022-08-16T07:51:07.877Z,42.50
2022-08-16T07:53:12.243Z,42.00
2022-08-16T07:55:16.349Z,42.10
2022-08-16T07:57:24.136Z,41.80
2022-08-16T07:59:45.847Z,42.00
2022-08-16T08:01:53.089Z,41.20
2022-08-16T08:03:55.752Z,39.50
2022-08-16T08:06:10.408Z,39.30
2022-08-16T08:08:49.507Z,39.40
2022-08-16T08:10:38.555Z,39.50
2022-08-16T08:12:47.307Z,39.50
2022-08-16T08:14:49.825Z,39.50
2022-08-16T08:16:54.583Z,39.50
2022-08-16T08:19:04.379Z,39.60
2022-08-16T08:21:09.257Z,38.90
2022-08-16T08:23:14.055Z,39.50
2022-08-16T08:25:24.403Z,38.80
2022-08-16T08:27:26.544Z,38.50
2022-08-16T08:29:37.624Z,37.50
2022-08-16T08:31:42.502Z,37.00
2022-08-16T08:33:47.482Z,36.90
2022-08-16T08:36:01.172Z,36.90
2022-08-16T08:38:04.249Z,37.20
2022-08-16T08:40:11.030Z,36.50
2022-08-16T08:42:12.815Z,36.10
2022-08-16T08:44:28.291Z,35.60
2022-08-16T08:46:35.783Z,34.90
2022-08-16T08:48:38.559Z,34.50
2022-08-16T08:50:50.143Z,34.40
2022-08-16T08:52:53.809Z,33.60
2022-08-16T08:54:55.588Z,34.00
2022-08-16T08:56:57.511Z,34.30
2022-08-16T08:59:19.851Z,32.80
2022-08-16T09:01:31.752Z,32.60
2022-08-16T09:03:39.906Z,32.00
2022-08-16T09:05:44.136Z,31.20
2022-08-16T09:08:00.298Z,30.40
2022-08-16T09:10:20.900Z,31.10
2022-08-16T09:12:36.166Z,31.30
2022-08-16T09:14:50.812Z,31.40
2022-08-16T09:17:03.607Z,31.50
2022-08-16T09:19:13.167Z,31.90
2022-08-16T09:21:16.102Z,30.20
2022-08-16T09:23:20.911Z,30.30
2022-08-16T09:25:34.263Z,30.50
2022-08-16T09:27:56.679Z,30.00
2022-08-16T09:30:02.653Z,30.40
2022-08-16T09:32:28.787Z,29.50
2022-08-16T09:34:33.183Z,28.70
2022-08-16T09:36:34.926Z,28.70
2022-08-16T09:38:39.278Z,28.40
2022-08-16T09:40:44.699Z,29.30
2022-08-16T09:42:56.489Z,28.70
2022-08-16T09:45:10.922Z,28.10
2022-08-16T09:47:15.250Z,28.70
2022-08-16T09:49:19.920Z,28.10
2022-08-16T09:51:23.523Z,28.40
2022-08-16T09:53:25.767Z,27.60
2022-08-16T09:55:27.856Z,26.20
2022-08-16T09:57:34.380Z,25.60
2022-08-16T09:59:38.636Z,25.00
2022-08-16T10:01:48.245Z,25.50
2022-08-16T10:04:04.726Z,25.00
2022-08-16T10:06:11.248Z,24.70
2022-08-16T10:08:25.342Z,24.50
2022-08-16T10:10:31.350Z,23.80
2022-08-16T10:12:55.670Z,23.60
2022-08-16T10:14:58.706Z,23.40
2022-08-16T10:17:04.609Z,23.50
2022-08-16T10:19:07.461Z,22.80
2022-08-16T10:21:10.499Z,23.30
2022-08-16T10:23:17.286Z,22.90
2022-08-16T10:27:16.380Z,23.50
2022-08-16T10:27:46.068Z,23.00
2022-08-16T10:30:26.249Z,23.10
2022-08-16T10:32:32.360Z,22.20
2022-08-16T10:34:34.197Z,22.20
2022-08-16T10:36:38.982Z,21.80
2022-08-16T10:38:42.282Z,20.90
2022-08-16T10:40:45.511Z,21.40
2022-08-16T10:42:49.546Z,21.00
2022-08-16T10:44:53.820Z,21.30
2022-08-16T10:46:56.546Z,21.30
2022-08-16T10:48:58.571Z,21.30
2022-08-16T10:51:03.006Z,21.30
2022-08-16T10:53:09.583Z,21.70
2022-08-16T10:57:34.834Z,21.60
2022-08-16T10:59:45.035Z,21.00
2022-08-16T11:06:40.966Z,20.40
2022-08-16T11:08:45.800Z,20.20
2022-08-16T11:11:06.712Z,20.00
2022-08-16T11:13:57.431Z,20.00
2022-08-16T11:15:41.888Z,20.30
2022-08-16T11:22:48.306Z,20.30
2022-08-16T11:25:11.935Z,20.10
2022-08-16T11:27:19.798Z,19.90
2022-08-16T11:29:26.834Z,19.50
2022-08-16T11:31:29.075Z,19.10
2022-08-16T11:33:53.262Z,18.70
2022-08-16T11:38:47.349Z,18.70
2022-08-16T11:40:52.690Z,18.20
2022-08-16T11:42:56.722Z,18.00
2022-08-16T11:44:58.551Z,18.40
2022-08-16T11:47:03.474Z,18.60
2022-08-16T11:49:11.230Z,18.10
2022-08-16T11:51:15.212Z,17.90
2022-08-16T11:53:17.235Z,16.80
2022-08-16T11:55:19.429Z,16.30
2022-08-16T11:57:25.289Z,16.10
2022-08-16T11:59:29.253Z,15.10
2022-08-16T12:01:55.209Z,15.20
2022-08-16T12:03:52.900Z,15.60
2022-08-16T12:06:00.598Z,15.80
2022-08-16T12:08:05.436Z,15.70
2022-08-16T12:10:12.597Z,16.00
2022-08-16T12:12:18.591Z,15.40
2022-08-16T12:14:22.905Z,15.80
2022-08-16T12:16:24.969Z,16.30
2022-08-16T12:18:35.277Z,16.80
2022-08-16T12:20:41.083Z,17.10
2022-08-16T12:22:43.694Z,16.80
2022-08-16T12:24:47.959Z,16.80
2022-08-16T12:26:56.903Z,15.40
2022-08-16T12:28:58.789Z,15.40
2022-08-16T12:31:00.780Z,14.80
2022-08-16T12:33:04.137Z,15.20
2022-08-16T12:35:12.039Z,14.40
2022-08-16T12:37:16.708Z,14.70
2022-08-16T12:39:20.437Z,14.00
2022-08-16T12:41:25.164Z,14.20
2022-08-16T12:43:31.149Z,14.00
2022-08-16T12:45:39.499Z,13.80
2022-08-16T12:48:29.416Z,13.50
2022-08-16T12:50:33.027Z,13.20
2022-08-16T12:52:36.062Z,13.60
2022-08-16T12:54:43.235Z,13.60
2022-08-16T12:56:44.987Z,13.70
2022-08-16T12:58:51.541Z,14.00
2022-08-16T13:00:53.982Z,13.30
2022-08-16T13:02:58.070Z,13.40
2022-08-16T13:04:59.960Z,13.20
2022-08-16T13:07:04.473Z,13.60
2022-08-16T13:09:26.456Z,13.20
2022-08-16T13:11:36.013Z,13.50
2022-08-16T13:13:40.048Z,12.70
2022-08-16T13:15:51.597Z,12.90
2022-08-16T13:18:00.874Z,12.70
2022-08-16T13:20:18.188Z,13.00
2022-08-16T13:22:20.830Z,11.20
2022-08-16T13:24:22.785Z,11.50
2022-08-16T13:26:26.437Z,11.60
2022-08-16T13:28:30.789Z,11.60
2022-08-16T13:30:41.199Z,11.60
2022-08-16T13:32:43.744Z,11.40
2022-08-16T13:34:49.954Z,10.50
2022-08-16T13:36:55.373Z,10.30
2022-08-16T13:39:00.597Z,10.20
2022-08-16T13:41:03.789Z,10.70
2022-08-16T13:43:05.547Z,10.50
2022-08-16T13:45:15.542Z,10.30
2022-08-16T13:47:17.942Z,10.20
2022-08-16T13:49:19.609Z,11.00
2022-08-16T13:51:29.228Z,11.00
2022-08-16T13:53:32.434Z,10.70
2022-08-16T13:55:34.774Z,11.00
2022-08-16T13:57:53.473Z,10.60
2022-08-16T13:59:58.428Z,10.70
2022-08-16T14:02:02.440Z,10.60
2022-08-16T14:04:05.283Z,10.60
2022-08-16T14:06:10.866Z,11.30
2022-08-16T14:08:14.294Z,10.90
2022-08-16T14:10:16.415Z,10.50
2022-08-16T14:12:25.887Z,10.40
2022-08-16T14:14:30.052Z,10.50
2022-08-16T14:16:35.126Z,10.40
2022-08-16T14:18:37.059Z,10.50
2022-08-16T14:20:38.730Z,11.00
2022-08-16T14:22:43.736Z,10.80
2022-08-16T14:24:58.546Z,11.00
2022-08-16T14:27:00.960Z,11.30
2022-08-16T14:29:07.816Z,11.30
2022-08-16T14:31:23.677Z,11.10
2022-08-16T14:33:25.569Z,11.10
2022-08-16T14:35:48.798Z,10.90
2022-08-16T14:37:52.727Z,10.50
2022-08-16T14:39:59.161Z,10.80
2022-08-16T14:42:15.963Z,10.80
2022-08-16T14:44:18.195Z,11.40
2022-08-16T14:46:20.437Z,11.00
2022-08-16T14:48:26.452Z,11.10
2022-08-16T14:50:28.956Z,10.40
2022-08-16T14:52:54.179Z,10.00
2022-08-16T14:54:53.365Z,10.10
2022-08-16T14:56:56.116Z,9.70
2022-08-16T14:59:02.770Z,9.40
2022-08-16T15:01:06.601Z,9.40
2022-08-16T15:03:14.075Z,9.30
2022-08-16T15:05:19.069Z,9.20
2022-08-16T15:07:22.311Z,9.00
2022-08-16T15:09:24.982Z,8.90
2022-08-16T15:11:26.691Z,9.00
2022-08-16T15:13:30.458Z,9.00
2022-08-16T15:15:32.921Z,9.40
2022-08-16T15:17:37.128Z,10.10
2022-08-16T15:19:43.718Z,9.90
2022-08-16T15:21:51.891Z,9.70
2022-08-16T15:23:56.480Z,9.40
2022-08-16T15:26:03.704Z,9.70
2022-08-16T15:28:23.546Z,9.40
2022-08-16T15:30:56.573Z,9.90
2022-08-16T15:33:09.197Z,9.80
2022-08-16T15:35:16.605Z,10.20
2022-08-16T15:37:25.471Z,10.20
2022-08-16T15:39:48.578Z,9.90
2022-08-16T15:42:01.655Z,9.40
2022-08-16T15:44:10.447Z,9.50
2022-08-16T15:46:35.375Z,9.70
2022-08-16T15:48:48.508Z,9.70
2022-08-16T15:51:00.666Z,9.60
2022-08-16T15:53:17.201Z,9.60
2022-08-16T15:55:34.809Z,9.20
2022-08-16T15:57:41.694Z,9.20
2022-08-16T15:59:48.644Z,9.20
2022-08-16T16:01:56.595Z,9.30
2022-08-16T16:04:00.089Z,9.10
2022-08-16T16:06:03.592Z,8.70
2022-08-16T16:08:10.999Z,9.00
2022-08-16T16:10:14.064Z,9.40
2022-08-16T16:12:41.958Z,9.70
2022-08-16T16:14:37.975Z,9.40
2022-08-16T16:16:41.368Z,9.90
2022-08-16T16:18:48.826Z,9.80
2022-08-16T16:20:56.156Z,10.00
2022-08-16T16:23:03.680Z,10.20
2022-08-16T16:25:08.475Z,10.50
2022-08-16T16:27:12.783Z,10.40
2022-08-16T16:29:14.761Z,10.60
2022-08-16T16:31:18.839Z,10.00
2022-08-16T16:33:28.131Z,9.80
2022-08-16T16:35:37.371Z,9.80
2022-08-16T16:37:41.867Z,10.30
2022-08-16T16:39:48.298Z,10.30
2022-08-16T16:41:54.853Z,10.30
2022-08-16T16:43:59.986Z,10.50
2022-08-16T16:46:32.717Z,10.40
2022-08-16T16:48:34.516Z,10.60
2022-08-16T16:50:40.577Z,10.70
2022-08-16T16:52:48.034Z,10.70
2022-08-16T16:54:52.756Z,10.90
2022-08-16T16:57:00.829Z,11.00
2022-08-16T16:59:09.642Z,11.00
2022-08-16T17:01:12.117Z,11.10
2022-08-16T17:03:17.028Z,11.00
2022-08-16T17:05:19.967Z,10.80
2022-08-16T17:07:24.244Z,10.80
2022-08-16T17:09:26.300Z,11.00
2022-08-16T17:11:30.022Z,10.90
2022-08-16T17:13:41.861Z,11.00
2022-08-16T17:15:50.124Z,11.00
2022-08-16T17:18:00.623Z,11.30
2022-08-16T17:20:06.809Z,11.20
2022-08-16T17:22:19.917Z,11.30
2022-08-16T17:24:39.475Z,11.30
2022-08-16T17:26:42.765Z,12.10
2022-08-16T17:28:58.224Z,12.20
2022-08-16T17:31:06.912Z,12.50
2022-08-16T17:33:11.260Z,12.80
2022-08-16T17:35:18.482Z,12.70
2022-08-16T17:37:22.159Z,12.70
2022-08-16T17:39:56.861Z,12.70
2022-08-16T17:42:12.894Z,12.80
2022-08-16T17:44:14.602Z,13.10
2022-08-16T17:46:41.718Z,13.00
2022-08-16T17:48:41.480Z,13.10
2022-08-16T17:50:43.822Z,13.20
2022-08-16T17:52:54.849Z,13.00
2022-08-16T17:54:56.631Z,13.10
2022-08-16T17:57:00.807Z,13.10
2022-08-16T17:59:02.898Z,13.70
2022-08-16T18:01:05.144Z,13.70
2022-08-16T18:03:13.454Z,13.70
2022-08-16T18:05:16.182Z,13.90
2022-08-16T18:07:17.963Z,13.90
2022-08-16T18:09:20.102Z,14.00
2022-08-16T18:11:26.100Z,14.00
2022-08-16T18:13:28.789Z,14.00
2022-08-16T18:15:30.934Z,14.00
2022-08-16T18:17:32.782Z,14.00
2022-08-16T18:19:35.753Z,14.00
2022-08-16T18:21:55.939Z,14.40
2022-08-16T18:23:59.179Z,14.50
2022-08-16T18:26:05.296Z,14.40
2022-08-16T18:28:06.966Z,14.40
2022-08-16T18:30:09.226Z,14.40
2022-08-16T18:32:11.543Z,14.70
2022-08-16T18:34:15.676Z,14.80
2022-08-16T18:36:19.908Z,14.70
2022-08-16T18:38:23.347Z,15.30
2022-08-16T18:40:27.710Z,15.30
2022-08-16T18:42:33.148Z,15.50
2022-08-16T18:44:39.292Z,15.40
2022-08-16T18:46:43.243Z,15.20
2022-08-16T18:48:44.996Z,15.30
2022-08-16T18:50:59.098Z,15.50
2022-08-16T18:53:13.697Z,15.70
2022-08-16T18:55:15.592Z,15.70
2022-08-16T18:57:19.802Z,15.70
2022-08-16T18:59:21.623Z,15.70
2022-08-16T19:01:23.560Z,15.70
2022-08-16T19:03:33.514Z,15.80
2022-08-16T19:05:42.084Z,15.70
2022-08-16T19:07:43.825Z,15.50
2022-08-16T19:09:45.683Z,15.60
2022-08-16T19:11:48.243Z,15.60
2022-08-16T19:13:50.424Z,15.60
2022-08-16T19:15:54.713Z,15.60
2022-08-16T19:17:57.879Z,15.50
2022-08-16T19:19:59.747Z,15.70
2022-08-16T19:22:05.867Z,15.60
2022-08-16T19:24:17.883Z,15.60
2022-08-16T19:26:26.354Z,15.60
2022-08-16T19:28:51.535Z,15.60
2022-08-16T19:31:00.978Z,15.50
2022-08-16T19:33:10.442Z,15.60
2022-08-16T19:35:18.562Z,15.50
2022-08-16T19:37:24.561Z,15.70
2022-08-16T19:39:30.650Z,15.70
2022-08-16T19:41:36.433Z,15.70
2022-08-16T19:43:42.377Z,15.70
2022-08-16T19:45:46.341Z,15.60
2022-08-16T19:47:49.450Z,15.60
2022-08-16T19:49:58.192Z,15.80
2022-08-16T19:52:12.965Z,15.70
2022-08-16T19:54:15.472Z,15.80
2022-08-16T19:56:18.697Z,15.80
2022-08-16T19:58:22.887Z,15.80
2022-08-16T20:00:35.257Z,15.90
2022-08-16T20:02:52.303Z,15.90
2022-08-16T20:04:56.018Z,15.90
2022-08-16T20:06:58.233Z,15.90
2022-08-16T20:09:02.431Z,16.00
2022-08-16T20:11:04.298Z,16.20
2022-08-16T20:13:15.401Z,16.40
2022-08-16T20:15:23.471Z,16.50
2022-08-16T20:17:28.039Z,16.60
2022-08-16T20:19:36.190Z,16.40
2022-08-16T20:21:42.107Z,16.70
2022-08-16T20:23:46.221Z,16.90
2022-08-16T20:25:49.905Z,16.90
2022-08-16T20:27:52.453Z,17.20
2022-08-16T20:29:54.249Z,17.20
2022-08-16T20:31:56.157Z,17.30
2022-08-16T20:33:57.894Z,17.40
2022-08-16T20:35:59.623Z,17.40
2022-08-16T20:38:06.170Z,17.50
2022-08-16T20:40:27.826Z,17.50
2022-08-16T20:42:33.130Z,17.70
2022-08-16T20:44:38.362Z,17.80
2022-08-16T20:46:41.274Z,18.00
2022-08-16T20:48:43.213Z,18.10
2022-08-16T20:50:47.655Z,18.20
2022-08-16T20:52:52.299Z,18.30
2022-08-16T20:54:56.711Z,18.60
2022-08-16T20:57:01.256Z,18.80
2022-08-16T20:59:03.076Z,18.90
2022-08-16T21:01:06.982Z,19.50
2022-08-16T21:03:11.171Z,19.20
2022-08-16T21:05:24.018Z,19.20
2022-08-16T21:07:26.392Z,19.60
2022-08-16T21:09:32.579Z,19.10
2022-08-16T21:11:34.291Z,19.10
2022-08-16T21:13:40.562Z,19.00
2022-08-16T21:15:44.666Z,18.90
2022-08-16T21:17:46.467Z,18.90
2022-08-16T21:19:48.142Z,18.90
2022-08-16T21:21:49.899Z,19.00
2022-08-16T21:23:51.617Z,18.80
2022-08-16T21:25:59.201Z,18.80
2022-08-16T21:28:39.324Z,18.90
2022-08-16T21:30:32.162Z,18.90
2022-08-16T21:32:35.040Z,19.00
2022-08-16T21:34:38.267Z,19.00
2022-08-16T21:36:40.739Z,19.10
2022-08-16T21:38:42.407Z,19.10
2022-08-16T21:40:44.464Z,18.90
2022-08-16T21:42:46.805Z,18.80
2022-08-16T21:44:48.507Z,18.90
2022-08-16T21:46:50.337Z,19.00
2022-08-16T21:48:54.358Z,19.20
2022-08-16T21:50:56.113Z,19.10
2022-08-16T21:53:09.922Z,19.10
2022-08-16T21:55:11.794Z,19.00
2022-08-16T21:57:13.537Z,19.00
2022-08-16T21:59:17.626Z,19.00
2022-08-16T22:01:19.764Z,19.20
2022-08-16T22:03:23.375Z,19.30
2022-08-16T22:05:27.982Z,19.40
2022-08-16T22:07:29.671Z,19.50
2022-08-16T22:09:31.362Z,19.60
2022-08-16T22:11:36.175Z,19.50
2022-08-16T22:13:38.390Z,19.60
2022-08-16T22:15:44.902Z,19.60
2022-08-16T22:17:48.820Z,19.80
2022-08-16T22:19:53.627Z,19.90
2022-08-16T22:21:55.782Z,20.00
2022-08-16T22:24:00.517Z,20.10
2022-08-16T22:26:02.565Z,20.10
2022-08-16T22:28:05.510Z,20.20
2022-08-16T22:30:10.945Z,20.20
2022-08-16T22:32:18.008Z,20.30
2022-08-16T22:34:19.912Z,20.30
2022-08-16T22:36:21.715Z,20.40
2022-08-16T22:38:54.015Z,20.40
2022-08-16T22:40:47.253Z,20.70
2022-08-16T22:42:52.511Z,20.90
2022-08-16T22:44:55.319Z,21.40
2022-08-16T22:46:57.016Z,21.40
2022-08-16T22:48:58.896Z,21.20
2022-08-16T22:51:05.697Z,21.10
2022-08-16T22:53:09.072Z,21.10
2022-08-16T22:55:10.826Z,21.20
2022-08-16T22:57:13.320Z,21.10
2022-08-16T22:59:15.017Z,21.10
2022-08-16T23:01:20.959Z,21.00
2022-08-16T23:03:22.869Z,21.30
2022-08-16T23:05:28.609Z,21.30
2022-08-16T23:07:30.311Z,21.30
2022-08-16T23:09:32.174Z,21.30
2022-08-16T23:11:36.290Z,21.30
2022-08-16T23:13:38.349Z,21.70
2022-08-16T23:16:03.247Z,21.90
2022-08-16T23:18:14.994Z,22.00
2022-08-16T23:20:22.106Z,21.80
2022-08-16T23:22:24.768Z,21.80
2022-08-16T23:24:27.916Z,21.70
2022-08-16T23:26:45.141Z,21.70
2022-08-16T23:28:50.028Z,21.90
2022-08-16T23:30:52.279Z,21.90
2022-08-16T23:33:02.135Z,22.00
2022-08-16T23:35:06.272Z,22.40
2022-08-16T23:37:11.913Z,22.50
2022-08-16T23:39:13.602Z,22.50
2022-08-16T23:41:15.625Z,22.30
2022-08-16T23:43:27.024Z,22.50
2022-08-16T23:45:34.517Z,22.60
2022-08-16T23:47:36.243Z,22.90
2022-08-16T23:50:01.110Z,23.00
2022-08-16T23:52:07.507Z,23.10
2022-08-16T23:54:11.477Z,23.60
2022-08-16T23:56:19.552Z,23.30
2022-08-16T23:58:32.633Z,23.30
